Time;durP1;ratioP1;P1;durP2;ratioP2;P2;SDS_P1;SDS_P2;PMS_P1;PMS_P2;Temp;Humidity;BMP_temperature;BMP_pressure;BME280_temperature;BME280_humidity;BME280_pressure;Samples;Min_cycle;Max_cycle;Signal;HPM_P1;HPM_P2
2021/09/10 00:00:52;;;;;;;23.50;17.42;;;22.20;86.70;;;;;;5055367;28;20056;-79
2021/09/10 00:03:17;;;;;;;24.40;18.80;;;22.20;86.80;;;;;;5056033;28;20089;-78
2021/09/10 00:05:43;;;;;;;19.88;17.83;;;22.20;87.20;;;;;;5055084;28;20020;-80
2021/09/10 00:08:09;;;;;;;22.95;19.02;;;22.10;87.40;;;;;;5054104;28;20059;-79
2021/09/10 00:10:34;;;;;;;24.38;19.45;;;22.10;87.90;;;;;;5053902;28;20090;-80
2021/09/10 00:13:00;;;;;;;21.98;18.00;;;22.10;87.90;;;;;;5053317;28;20017;-79
2021/09/10 00:15:27;;;;;;;20.30;18.13;;;22.10;88.10;;;;;;5053651;28;20033;-80
2021/09/10 00:17:53;;;;;;;20.10;17.33;;;21.90;88.20;;;;;;5059307;28;20017;-79
2021/09/10 00:20:20;;;;;;;18.13;15.00;;;22.00;88.70;;;;;;5056711;28;20032;-79
2021/09/10 00:22:45;;;;;;;25.85;21.45;;;21.90;88.60;;;;;;5055867;28;20027;-78
2021/09/10 00:25:11;;;;;;;20.00;17.65;;;21.80;89.10;;;;;;5054534;28;20109;-79
2021/09/10 00:27:37;;;;;;;26.70;20.88;;;21.80;89.10;;;;;;5053517;28;20039;-79
2021/09/10 00:30:05;;;;;;;23.08;19.80;;;21.80;89.60;;;;;;5051954;28;20528;-78
2021/09/10 00:32:30;;;;;;;22.75;18.48;;;21.70;89.70;;;;;;5053803;28;20021;-78
2021/09/10 00:34:56;;;;;;;22.35;19.95;;;21.70;90.00;;;;;;5053717;28;20413;-78
2021/09/10 00:37:21;;;;;;;20.85;16.60;;;21.70;90.10;;;;;;5053861;28;20017;-80
2021/09/10 00:39:47;;;;;;;24.33;21.73;;;21.60;90.40;;;;;;5054447;28;20037;-78
2021/09/10 00:42:13;;;;;;;21.63;17.80;;;21.60;90.20;;;;;;5053227;28;20024;-79
2021/09/10 00:44:38;;;;;;;20.58;16.05;;;21.50;89.80;;;;;;5054195;28;20044;-78
2021/09/10 00:47:04;;;;;;;25.55;20.15;;;21.50;89.40;;;;;;5053761;28;20032;-78
2021/09/10 00:49:30;;;;;;;18.67;16.20;;;21.50;90.30;;;;;;5055084;28;20036;-78
2021/09/10 00:51:57;;;;;;;26.60;21.23;;;21.40;89.30;;;;;;5053155;28;20024;-81
2021/09/10 00:54:23;;;;;;;28.08;20.85;;;21.40;90.00;;;;;;5055079;28;20017;-79
2021/09/10 00:56:49;;;;;;;25.42;21.23;;;21.40;90.10;;;;;;5053410;28;20022;-79
2021/09/10 00:59:15;;;;;;;24.73;21.33;;;21.40;90.40;;;;;;5053099;28;20363;-78
2021/09/10 01:01:41;;;;;;;33.10;25.80;;;21.40;90.50;;;;;;5053501;28;20048;-79
2021/09/10 01:04:07;;;;;;;19.63;17.45;;;21.40;90.80;;;;;;5053514;28;20052;-79
2021/09/10 01:06:33;;;;;;;27.17;22.70;;;21.40;90.70;;;;;;5055341;28;20029;-78
2021/09/10 01:09:00;;;;;;;26.25;22.58;;;21.40;90.90;;;;;;5054246;28;20496;-76
2021/09/10 01:11:26;;;;;;;23.75;21.10;;;21.40;91.00;;;;;;5054864;28;20118;-79
2021/09/10 01:13:54;;;;;;;28.02;21.48;;;21.30;91.00;;;;;;5052452;28;20025;-79
2021/09/10 01:16:20;;;;;;;25.17;21.75;;;21.30;91.00;;;;;;5052398;28;20088;-79
2021/09/10 01:18:46;;;;;;;27.13;21.65;;;21.30;91.10;;;;;;5052745;28;20112;-78
2021/09/10 01:21:12;;;;;;;26.38;22.50;;;21.30;91.20;;;;;;5052488;28;20048;-78
2021/09/10 01:23:37;;;;;;;30.45;24.10;;;21.20;91.20;;;;;;5052749;28;20020;-79
2021/09/10 01:26:03;;;;;;;25.45;21.65;;;21.20;91.30;;;;;;5052084;28;20040;-79
2021/09/10 01:28:30;;;;;;;26.98;24.08;;;21.20;91.30;;;;;;5051939;28;20051;-79
2021/09/10 01:30:55;;;;;;;28.85;24.05;;;21.20;91.40;;;;;;5055058;28;20032;-79
2021/09/10 01:33:21;;;;;;;28.83;24.27;;;21.20;91.50;;;;;;5052644;28;20021;-79
2021/09/10 01:35:46;;;;;;;28.08;21.67;;;21.20;91.40;;;;;;5054100;28;20017;-79
2021/09/10 01:38:12;;;;;;;25.27;20.05;;;21.20;91.40;;;;;;5051979;28;20075;-79
2021/09/10 01:40:39;;;;;;;28.42;22.42;;;21.20;91.50;;;;;;5053126;28;20028;-79
2021/09/10 01:43:06;;;;;;;27.48;22.50;;;21.20;91.50;;;;;;5052061;28;20028;-78
2021/09/10 01:45:32;;;;;;;25.95;22.70;;;21.20;91.50;;;;;;5052809;28;20021;-80
2021/09/10 01:47:59;;;;;;;28.73;23.40;;;21.20;91.60;;;;;;5052156;28;20028;-79
2021/09/10 01:50:25;;;;;;;26.92;22.17;;;21.20;91.60;;;;;;5054085;28;20025;-79
2021/09/10 01:52:52;;;;;;;22.73;19.15;;;21.20;91.60;;;;;;5052081;28;20017;-78
2021/09/10 01:55:18;;;;;;;32.40;26.67;;;21.20;91.40;;;;;;5051968;28;20040;-79
2021/09/10 01:57:47;;;;;;;32.10;25.88;;;21.10;91.60;;;;;;5053161;28;20025;-79
2021/09/10 02:00:13;;;;;;;25.15;22.38;;;21.10;91.60;;;;;;5051597;28;20047;-78
2021/09/10 02:02:39;;;;;;;30.08;22.35;;;21.10;91.70;;;;;;5052443;28;20025;-78
2021/09/10 02:05:07;;;;;;;27.35;22.23;;;21.10;91.80;;;;;;5052832;28;20537;-78
2021/09/10 02:07:32;;;;;;;24.48;21.80;;;21.00;91.70;;;;;;5058864;28;20085;-78
2021/09/10 02:09:58;;;;;;;26.00;21.73;;;21.00;91.70;;;;;;5052835;28;20065;-79
2021/09/10 02:12:23;;;;;;;29.25;23.73;;;21.00;91.70;;;;;;5051733;28;20017;-78
2021/09/10 02:14:49;;;;;;;26.88;22.23;;;21.00;91.80;;;;;;5053442;28;20099;-79
2021/09/10 02:17:15;;;;;;;28.33;23.70;;;21.00;91.80;;;;;;5051919;28;20059;-79
2021/09/10 02:19:40;;;;;;;27.17;22.13;;;20.90;91.80;;;;;;5051922;28;20535;-79
2021/09/10 02:22:06;;;;;;;24.75;20.42;;;20.90;91.80;;;;;;5053330;28;20029;-78
2021/09/10 02:24:32;;;;;;;23.70;20.17;;;20.90;91.80;;;;;;5051869;28;20563;-79
2021/09/10 02:26:58;;;;;;;21.30;17.95;;;20.80;91.70;;;;;;5052686;28;20032;-79
2021/09/10 02:29:23;;;;;;;26.27;21.30;;;20.90;91.80;;;;;;5053376;28;20358;-80
2021/09/10 02:31:49;;;;;;;22.73;18.60;;;20.80;91.90;;;;;;5052523;28;20025;-79
2021/09/10 02:34:15;;;;;;;22.70;20.13;;;20.80;91.90;;;;;;5052374;28;20035;-80
2021/09/10 02:36:40;;;;;;;31.27;22.40;;;20.70;92.00;;;;;;5052228;28;20028;-80
2021/09/10 02:39:08;;;;;;;32.60;24.52;;;20.70;92.00;;;;;;5052011;28;20044;-79
2021/09/10 02:41:35;;;;;;;24.63;21.20;;;20.70;92.20;;;;;;5052058;28;20028;-79
2021/09/10 02:44:02;;;;;;;29.75;22.02;;;20.70;92.20;;;;;;5056281;28;20055;-79
2021/09/10 02:46:28;;;;;;;28.20;22.58;;;20.70;92.30;;;;;;5052643;28;20370;-79
2021/09/10 02:48:53;;;;;;;28.30;22.15;;;20.60;92.30;;;;;;5052417;28;20036;-77
2021/09/10 02:51:19;;;;;;;25.27;21.25;;;20.60;92.30;;;;;;5055414;28;20084;-79
2021/09/10 02:53:44;;;;;;;30.02;22.60;;;20.60;92.30;;;;;;5063021;28;20115;-78
2021/09/10 02:56:10;;;;;;;25.83;22.17;;;20.60;92.30;;;;;;5065891;28;20036;-77
2021/09/10 02:58:36;;;;;;;27.35;23.10;;;20.60;92.40;;;;;;5059382;28;20070;-79
2021/09/10 03:01:02;;;;;;;28.45;23.50;;;20.60;92.40;;;;;;5058763;28;20025;-80
2021/09/10 03:03:29;;;;;;;28.00;23.10;;;20.50;92.40;;;;;;5065898;28;20021;-78
2021/09/10 03:05:56;;;;;;;28.60;23.48;;;20.50;92.50;;;;;;5069011;28;20044;-79
2021/09/10 03:08:22;;;;;;;26.13;20.30;;;20.50;92.50;;;;;;5072264;28;20029;-81
2021/09/10 03:10:48;;;;;;;24.10;20.05;;;20.50;92.50;;;;;;5055505;28;20021;-80
2021/09/10 03:13:14;;;;;;;26.42;20.88;;;20.50;92.40;;;;;;5056242;28;20111;-81
2021/09/10 03:15:40;;;;;;;26.63;20.98;;;20.50;92.50;;;;;;5056200;28;20028;-81
2021/09/10 03:18:06;;;;;;;27.75;21.52;;;20.50;92.40;;;;;;5055797;28;20362;-80
2021/09/10 03:20:32;;;;;;;28.88;23.00;;;20.40;92.30;;;;;;5058670;28;20029;-80
2021/09/10 03:22:57;;;;;;;26.30;21.35;;;20.40;92.30;;;;;;5062563;28;20374;-81
2021/09/10 03:25:23;;;;;;;24.52;21.30;;;20.40;92.30;;;;;;5061631;28;20024;-81
2021/09/10 03:27:49;;;;;;;29.52;21.13;;;20.40;92.30;;;;;;5055794;28;20437;-81
2021/09/10 03:30:15;;;;;;;29.60;23.17;;;20.40;92.30;;;;;;5055084;28;20378;-79
2021/09/10 03:32:41;;;;;;;26.65;21.00;;;20.40;92.40;;;;;;5057195;28;20017;-81
2021/09/10 03:35:07;;;;;;;29.00;22.92;;;20.40;92.50;;;;;;5056133;28;20045;-81
2021/09/10 03:37:33;;;;;;;29.02;22.15;;;20.30;92.50;;;;;;5056257;28;20066;-81
2021/09/10 03:39:59;;;;;;;24.52;21.83;;;20.30;92.50;;;;;;5054783;28;20032;-80
2021/09/10 03:42:24;;;;;;;27.42;22.00;;;20.30;92.50;;;;;;5056245;28;20029;-82
2021/09/10 03:44:50;;;;;;;21.80;18.17;;;20.30;92.70;;;;;;5055237;28;20351;-81
2021/09/10 03:47:16;;;;;;;23.15;19.05;;;20.30;92.60;;;;;;5054707;28;20127;-82
2021/09/10 03:49:41;;;;;;;26.73;22.30;;;20.30;92.60;;;;;;5055675;28;20029;-82
2021/09/10 03:52:07;;;;;;;24.13;18.50;;;20.30;92.60;;;;;;5055845;28;20481;-82
2021/09/10 03:54:33;;;;;;;25.15;20.02;;;20.30;92.50;;;;;;5054890;28;20082;-83
2021/09/10 03:56:58;;;;;;;24.15;20.20;;;20.30;92.60;;;;;;5060805;28;20025;-81
2021/09/10 03:59:24;;;;;;;30.38;23.15;;;20.20;92.70;;;;;;5059746;28;20029;-82
2021/09/10 04:01:50;;;;;;;24.88;20.00;;;20.20;92.70;;;;;;5054750;28;20025;-82
2021/09/10 04:04:17;;;;;;;22.05;18.10;;;20.20;92.70;;;;;;5053507;28;20025;-82
2021/09/10 04:06:42;;;;;;;24.13;20.50;;;20.10;92.60;;;;;;5055216;28;20021;-81
2021/09/10 04:09:08;;;;;;;13.57;11.20;;;20.20;92.80;;;;;;5054524;28;20025;-81
2021/09/10 04:11:36;;;;;;;26.98;21.10;;;20.20;92.60;;;;;;5055394;28;20021;-82
2021/09/10 04:14:02;;;;;;;21.92;18.35;;;20.10;92.60;;;;;;5054236;28;20098;-82
2021/09/10 04:16:27;;;;;;;23.65;19.67;;;20.00;92.70;;;;;;5054286;28;20013;-81
2021/09/10 04:18:53;;;;;;;28.45;21.45;;;20.00;92.90;;;;;;5054189;28;20051;-81
2021/09/10 04:21:19;;;;;;;23.42;20.42;;;20.00;92.90;;;;;;5054129;28;20021;-81
2021/09/10 04:23:45;;;;;;;27.77;20.20;;;20.00;92.90;;;;;;5053924;28;20024;-81
2021/09/10 04:26:10;;;;;;;25.23;18.85;;;20.00;92.90;;;;;;5055017;28;20025;-82
2021/09/10 04:28:36;;;;;;;25.23;20.05;;;20.00;93.00;;;;;;5055121;28;20119;-82
2021/09/10 04:31:02;;;;;;;23.58;19.67;;;20.00;93.00;;;;;;5054141;28;20025;-81
2021/09/10 04:33:27;;;;;;;26.60;20.05;;;20.00;93.00;;;;;;5054771;28;20040;-81
2021/09/10 04:35:53;;;;;;;25.27;20.67;;;19.90;93.20;;;;;;5064266;28;20476;-81
2021/09/10 04:38:18;;;;;;;25.80;20.13;;;19.90;93.00;;;;;;5053416;28;20036;-82
2021/09/10 04:40:44;;;;;;;23.38;19.73;;;19.90;93.00;;;;;;5053975;28;20025;-81
2021/09/10 04:43:10;;;;;;;24.73;19.13;;;19.80;93.10;;;;;;5056994;28;20478;-82
2021/09/10 04:45:36;;;;;;;23.17;19.35;;;19.90;93.10;;;;;;5064417;28;20399;-80
2021/09/10 04:48:01;;;;;;;19.23;14.75;;;19.90;93.10;;;;;;5062767;28;20025;-82
2021/09/10 04:50:27;;;;;;;19.95;16.63;;;19.90;93.00;;;;;;5057221;28;20068;-80
2021/09/10 04:52:53;;;;;;;24.88;20.48;;;19.90;93.00;;;;;;5054379;28;20444;-83
2021/09/10 04:55:19;;;;;;;22.17;19.10;;;19.80;93.10;;;;;;5054949;28;20020;-81
2021/09/10 04:57:45;;;;;;;22.63;18.30;;;19.80;93.10;;;;;;5054674;28;20021;-82
2021/09/10 05:00:12;;;;;;;22.83;18.92;;;19.80;93.10;;;;;;5054700;28;20025;-81
2021/09/10 05:02:38;;;;;;;19.98;17.20;;;19.80;93.10;;;;;;5055102;28;20059;-82
2021/09/10 05:05:05;;;;;;;26.38;21.05;;;19.80;93.20;;;;;;5054666;28;20029;-82
2021/09/10 05:07:30;;;;;;;24.38;18.90;;;19.80;93.20;;;;;;5054196;28;20025;-82
2021/09/10 05:09:56;;;;;;;24.42;17.70;;;19.80;93.10;;;;;;5054456;28;20094;-81
2021/09/10 05:12:22;;;;;;;26.38;20.17;;;19.80;93.10;;;;;;5055668;28;20386;-82
2021/09/10 05:14:52;;;;;;;21.92;18.95;;;19.80;93.20;;;;;;5053379;28;20021;-83
2021/09/10 05:17:18;;;;;;;10.13;7.60;;;19.70;93.20;;;;;;5053065;28;20473;-82
2021/09/10 05:19:44;;;;;;;22.05;17.48;;;19.80;91.10;;;;;;5054728;28;20031;-83
2021/09/10 05:22:10;;;;;;;22.77;18.00;;;19.80;92.40;;;;;;5053940;28;20449;-83
2021/09/10 05:24:35;;;;;;;15.77;12.93;;;19.80;92.70;;;;;;5054022;28;20056;-84
2021/09/10 05:27:01;;;;;;;19.83;16.27;;;19.80;92.30;;;;;;5054531;28;20095;-82
2021/09/10 05:29:27;;;;;;;17.60;14.55;;;19.80;92.60;;;;;;5065839;28;20033;-82
2021/09/10 05:31:52;;;;;;;22.92;18.80;;;19.90;92.60;;;;;;5054138;28;20025;-82
2021/09/10 05:34:18;;;;;;;23.83;17.63;;;19.90;92.80;;;;;;5052371;28;20482;-82
2021/09/10 05:36:44;;;;;;;20.10;16.67;;;20.00;92.80;;;;;;5053380;28;20024;-83
2021/09/10 05:39:09;;;;;;;21.80;15.85;;;20.00;92.80;;;;;;5053329;28;20470;-82
2021/09/10 05:41:35;;;;;;;20.55;16.95;;;20.10;92.80;;;;;;5054060;28;20055;-83
2021/09/10 05:44:01;;;;;;;19.73;15.10;;;20.10;92.70;;;;;;5054824;28;20106;-84
2021/09/10 05:46:26;;;;;;;20.17;16.85;;;20.20;92.60;;;;;;5054575;28;20028;-82
2021/09/10 05:48:52;;;;;;;20.23;15.73;;;20.30;92.50;;;;;;5054391;28;20025;-82
2021/09/10 05:51:17;;;;;;;18.05;15.07;;;20.40;92.30;;;;;;5052603;28;20453;-80
2021/09/10 05:53:43;;;;;;;21.70;17.63;;;20.40;92.20;;;;;;5054090;28;20017;-81
2021/09/10 05:56:09;;;;;;;18.10;15.95;;;20.50;92.10;;;;;;5053722;28;20029;-83
2021/09/10 05:58:35;;;;;;;21.50;17.27;;;20.50;92.00;;;;;;5053928;28;20495;-83
2021/09/10 06:01:01;;;;;;;22.92;17.00;;;20.60;91.90;;;;;;5052553;28;20104;-84
2021/09/10 06:03:27;;;;;;;20.40;14.48;;;20.60;91.60;;;;;;5052714;28;20026;-81
2021/09/10 06:05:52;;;;;;;20.08;12.82;;;20.60;91.70;;;;;;5053736;28;20032;-83
2021/09/10 06:08:18;;;;;;;19.25;15.38;;;20.60;91.70;;;;;;5050497;28;20036;-84
2021/09/10 06:10:46;;;;;;;28.17;14.63;;;20.60;91.60;;;;;;5042778;28;20405;-82
2021/09/10 06:13:12;;;;;;;15.43;13.48;;;20.60;91.40;;;;;;5054033;28;20025;-81
2021/09/10 06:15:38;;;;;;;20.38;14.75;;;20.70;91.10;;;;;;5056042;28;20013;-83
2021/09/10 06:18:04;;;;;;;14.95;12.55;;;20.70;91.20;;;;;;5054046;28;20520;-80
2021/09/10 06:20:30;;;;;;;8.70;6.78;;;20.70;90.70;;;;;;5053287;28;20025;-84
2021/09/10 06:22:55;;;;;;;21.70;17.23;;;20.70;87.60;;;;;;5054774;28;20029;-83
2021/09/10 06:25:21;;;;;;;14.32;6.03;;;20.80;90.60;;;;;;5065633;28;20021;-83
2021/09/10 06:27:47;;;;;;;13.05;8.63;;;20.80;87.00;;;;;;5055707;28;20063;-82
2021/09/10 06:30:12;;;;;;;15.20;11.05;;;20.80;88.70;;;;;;5058070;28;20033;-82
2021/09/10 06:32:38;;;;;;;19.85;14.13;;;20.80;86.10;;;;;;5060809;28;20191;-82
2021/09/10 06:35:04;;;;;;;19.05;14.95;;;20.80;90.40;;;;;;5073931;28;20029;-85
2021/09/10 06:37:30;;;;;;;18.70;13.10;;;20.80;90.80;;;;;;5068422;28;20100;-82
2021/09/10 06:39:56;;;;;;;19.50;15.73;;;20.80;90.80;;;;;;5058117;28;20033;-83
2021/09/10 06:42:21;;;;;;;22.10;15.77;;;20.90;90.70;;;;;;5057100;28;20116;-82
2021/09/10 06:44:52;;;;;;;18.80;14.02;;;20.90;90.60;;;;;;5057425;28;20025;-83
2021/09/10 06:47:18;;;;;;;18.52;13.77;;;20.90;91.00;;;;;;5057351;28;20021;-83
2021/09/10 06:49:45;;;;;;;18.73;14.10;;;20.90;90.40;;;;;;5057058;28;20025;-83
2021/09/10 06:52:10;;;;;;;18.35;13.93;;;20.90;90.50;;;;;;5056651;28;20132;-83
2021/09/10 06:54:36;;;;;;;22.75;15.75;;;20.90;90.60;;;;;;5056315;28;20079;-81
2021/09/10 06:57:02;;;;;;;18.98;14.63;;;20.90;90.80;;;;;;5057121;28;20432;-82
2021/09/10 06:59:27;;;;;;;17.42;15.20;;;20.80;90.70;;;;;;5057505;28;20028;-82
2021/09/10 07:01:53;;;;;;;15.18;11.15;;;20.80;90.80;;;;;;5067581;28;20028;-83
2021/09/10 07:04:19;;;;;;;20.50;15.75;;;20.90;90.80;;;;;;5060964;28;20462;-82
2021/09/10 07:06:45;;;;;;;20.15;15.55;;;20.90;90.80;;;;;;5071876;28;20021;-81
2021/09/10 07:09:11;;;;;;;13.57;9.65;;;20.90;90.40;;;;;;5072983;28;20058;-82
2021/09/10 07:11:36;;;;;;;19.67;15.73;;;20.90;88.40;;;;;;5072775;28;20025;-81
2021/09/10 07:14:03;;;;;;;22.30;16.00;;;20.80;90.20;;;;;;5067369;28;20032;-82
2021/09/10 07:16:30;;;;;;;13.85;9.50;;;20.80;89.20;;;;;;5056216;28;20411;-80
2021/09/10 07:18:56;;;;;;;15.00;10.80;;;20.80;89.30;;;;;;5056199;28;20600;-80
2021/09/10 07:21:22;;;;;;;18.38;12.80;;;20.70;89.60;;;;;;5056152;28;20052;-80
2021/09/10 07:23:47;;;;;;;14.55;10.32;;;20.70;90.40;;;;;;5056264;28;20086;-80
2021/09/10 07:26:14;;;;;;;13.43;10.48;;;20.80;90.10;;;;;;5056404;28;20036;-79
2021/09/10 07:28:39;;;;;;;12.90;8.82;;;20.80;90.20;;;;;;5057405;28;20040;-81
2021/09/10 07:31:06;;;;;;;14.85;10.57;;;20.80;89.50;;;;;;5056282;28;20457;-82
2021/09/10 07:33:37;;;;;;;14.10;11.93;;;20.80;90.00;;;;;;5063252;28;20029;-80
2021/09/10 07:36:06;;;;;;;14.40;11.18;;;20.90;90.20;;;;;;5058951;28;20422;-81
2021/09/10 07:38:33;;;;;;;10.75;8.15;;;20.90;90.20;;;;;;5055368;28;20044;-81
2021/09/10 07:40:59;;;;;;;16.60;10.35;;;21.00;90.20;;;;;;5055833;28;20033;-81
2021/09/10 07:43:25;;;;;;;14.27;9.57;;;21.00;90.00;;;;;;5055312;28;20031;-81
2021/09/10 07:45:51;;;;;;;9.43;6.85;;;21.10;90.10;;;;;;5055317;28;20017;-79
2021/09/10 07:48:17;;;;;;;20.20;14.45;;;21.20;88.50;;;;;;5054651;28;20025;-79
2021/09/10 07:50:42;;;;;;;8.23;4.40;;;21.20;86.70;;;;;;5054460;28;20017;-80
2021/09/10 07:53:08;;;;;;;9.07;4.45;;;21.20;82.50;;;;;;5054732;28;20025;-78
2021/09/10 07:55:34;;;;;;;21.15;15.07;;;21.30;82.20;;;;;;5054781;28;20021;-79
2021/09/10 07:58:00;;;;;;;16.77;13.95;;;21.40;84.50;;;;;;5055994;28;20021;-79
2021/09/10 08:00:25;;;;;;;18.48;13.38;;;21.50;87.10;;;;;;5054355;28;20362;-79
2021/09/10 08:02:51;;;;;;;17.50;13.45;;;21.50;85.50;;;;;;5054433;28;20021;-79
2021/09/10 08:05:17;;;;;;;22.33;15.48;;;21.60;86.80;;;;;;5053975;28;20056;-79
2021/09/10 08:07:43;;;;;;;17.55;13.90;;;21.60;87.70;;;;;;5054917;28;20420;-78
2021/09/10 08:10:13;;;;;;;20.55;15.52;;;21.60;88.00;;;;;;5054626;28;20040;-80
2021/09/10 08:12:41;;;;;;;17.40;13.07;;;21.70;88.10;;;;;;5054156;28;20032;-79
2021/09/10 08:15:07;;;;;;;17.77;13.95;;;21.70;87.00;;;;;;5054263;28;20052;-79
2021/09/10 08:17:32;;;;;;;17.90;13.27;;;21.70;87.30;;;;;;5054044;28;20017;-80
2021/09/10 08:19:58;;;;;;;16.55;13.80;;;21.90;85.80;;;;;;5055434;28;20082;-79
2021/09/10 08:22:24;;;;;;;15.73;13.02;;;21.90;86.60;;;;;;5054020;28;20090;-80
2021/09/10 08:24:49;;;;;;;17.33;13.60;;;21.90;87.10;;;;;;5045877;28;20024;-79
2021/09/10 08:27:15;;;;;;;21.83;13.75;;;22.00;87.10;;;;;;5040494;28;20162;-79
2021/09/10 08:29:41;;;;;;;18.90;14.20;;;21.90;86.40;;;;;;5054129;28;20029;-80
2021/09/10 08:32:06;;;;;;;17.10;14.45;;;21.90;86.30;;;;;;5054778;28;20021;-80
2021/09/10 08:34:32;;;;;;;17.15;14.93;;;21.90;86.60;;;;;;5053755;28;20028;-80
2021/09/10 08:36:57;;;;;;;11.52;9.05;;;21.90;87.00;;;;;;5056407;28;20378;-84
2021/09/10 08:39:23;;;;;;;14.85;12.82;;;21.90;84.30;;;;;;5055435;28;20175;-84
2021/09/10 08:41:49;;;;;;;18.10;13.88;;;22.00;83.80;;;;;;5056854;28;20115;-85
2021/09/10 08:44:16;;;;;;;18.90;12.85;;;22.10;85.40;;;;;;5056694;28;20111;-84
2021/09/10 08:46:44;;;;;;;12.50;9.15;;;22.20;81.60;;;;;;5056067;28;20028;-84
2021/09/10 08:49:13;;;;;;;17.13;13.48;;;22.30;83.80;;;;;;5055317;28;20078;-84
2021/09/10 08:51:39;;;;;;;17.00;10.75;;;22.40;84.20;;;;;;5062649;28;20446;-84
2021/09/10 08:54:04;;;;;;;20.33;12.27;;;22.40;82.90;;;;;;5055190;28;20055;-85
2021/09/10 08:56:30;;;;;;;12.77;8.85;;;22.50;82.40;;;;;;5055595;28;20130;-86
2021/09/10 08:59:07;;;;;;;17.95;14.70;;;22.70;81.10;;;;;;5056723;28;20029;-85
2021/09/10 09:01:32;;;;;;;14.88;11.15;;;22.80;82.10;;;;;;5060146;28;20504;-85
2021/09/10 09:04:04;;;;;;;14.82;12.38;;;22.80;80.80;;;;;;5070282;28;20041;-83
2021/09/10 09:06:34;;;;;;;10.77;8.00;;;22.80;80.90;;;;;;5069832;28;20072;-83
2021/09/10 09:09:01;;;;;;;13.27;9.32;;;22.80;80.40;;;;;;5067441;28;20025;-83
2021/09/10 09:11:26;;;;;;;10.30;6.68;;;23.00;79.80;;;;;;5057203;28;20123;-85
2021/09/10 09:13:54;;;;;;;14.48;10.05;;;23.10;78.50;;;;;;5055542;28;20063;-84
2021/09/10 09:16:26;;;;;;;14.38;10.45;;;23.30;78.40;;;;;;5055082;28;20021;-85
2021/09/10 09:19:01;;;;;;;12.85;8.85;;;23.40;77.00;;;;;;5054943;28;20079;-84
2021/09/10 09:21:29;;;;;;;10.85;7.00;;;23.40;77.60;;;;;;5055474;28;20021;-84
2021/09/10 09:24:21;;;;;;;10.27;6.57;;;23.40;76.30;;;;;;5055871;28;20021;-85
2021/09/10 09:26:52;;;;;;;12.35;7.47;;;23.40;77.60;;;;;;5063029;28;20029;-85
2021/09/10 09:29:22;;;;;;;16.05;11.48;;;23.60;77.10;;;;;;5063434;28;20045;-84
2021/09/10 09:31:54;;;;;;;;;;;23.70;78.30;;;;;;5055899;28;20033;-82
2021/09/10 09:34:47;;;;;;;12.35;9.27;;;23.70;76.90;;;;;;5053124;28;20005;-82
2021/09/10 09:37:19;;;;;;;8.88;5.68;;;23.80;77.20;;;;;;5054365;28;20036;-85
2021/09/10 09:40:12;;;;;;;9.40;7.25;;;23.80;75.90;;;;;;5054061;28;20029;-82
2021/09/10 09:42:37;;;;;;;9.98;5.40;;;23.90;75.00;;;;;;5053017;28;20112;-83
2021/09/10 09:45:11;;;;;;;13.88;11.70;;;24.00;73.00;;;;;;5060653;28;20374;-83
2021/09/10 09:47:37;;;;;;;18.27;11.40;;;24.10;75.00;;;;;;5054610;28;20021;-83
2021/09/10 09:50:05;;;;;;;9.90;4.70;;;24.20;74.40;;;;;;5054357;28;20028;-84
2021/09/10 09:52:31;;;;;;;9.80;8.02;;;24.20;72.90;;;;;;5054277;28;20359;-84
2021/09/10 09:54:57;;;;;;;14.90;11.23;;;24.50;74.20;;;;;;5054502;28;20040;-85
2021/09/10 09:57:27;;;;;;;8.60;5.72;;;24.60;74.00;;;;;;5055041;28;20024;-84
2021/09/10 09:59:54;;;;;;;13.45;8.93;;;24.70;72.80;;;;;;5054659;28;20469;-83
2021/09/10 10:02:20;;;;;;;19.25;11.55;;;24.80;72.90;;;;;;5054002;28;20021;-85
2021/09/10 10:04:45;;;;;;;9.57;6.65;;;24.80;73.70;;;;;;5054461;28;20100;-84
2021/09/10 10:07:12;;;;;;;11.40;6.13;;;24.80;73.30;;;;;;5053994;28;20477;-84
2021/09/10 10:09:41;;;;;;;10.23;6.57;;;24.90;71.80;;;;;;5064534;28;20021;-82
2021/09/10 10:12:09;;;;;;;10.73;5.00;;;25.10;70.10;;;;;;5060221;28;20029;-81
2021/09/10 10:14:39;;;;;;;7.80;5.65;;;25.20;69.40;;;;;;5040142;28;20059;-83
2021/09/10 10:17:25;;;;;;;10.93;7.75;;;25.20;69.90;;;;;;5053305;28;20458;-83
2021/09/10 10:19:51;;;;;;;13.23;7.40;;;25.30;70.60;;;;;;5052835;28;20435;-84
2021/09/10 10:22:37;;;;;;;5.93;3.03;;;25.20;71.10;;;;;;5054284;28;20029;-82
2021/09/10 10:25:11;;;;;;;9.32;5.90;;;25.10;70.90;;;;;;5053056;28;20048;-82
2021/09/10 10:27:40;;;;;;;8.30;4.90;;;25.20;70.30;;;;;;5052569;28;20030;-81
2021/09/10 10:30:14;;;;;;;6.55;3.80;;;25.20;71.30;;;;;;5052780;28;20485;-82
2021/09/10 10:32:41;;;;;;;10.25;5.68;;;25.20;69.80;;;;;;5053418;28;20025;-82
2021/09/10 10:35:17;;;;;;;14.60;9.80;;;25.10;70.80;;;;;;5053491;28;20045;-82
2021/09/10 10:37:44;;;;;;;10.68;6.45;;;25.10;71.50;;;;;;5054036;28;20021;-83
2021/09/10 10:40:24;;;;;;;9.75;6.20;;;24.90;71.90;;;;;;5061712;28;20017;-83
2021/09/10 10:42:51;;;;;;;12.93;8.17;;;24.90;71.90;;;;;;5053593;28;20028;-82
2021/09/10 10:45:37;;;;;;;13.20;8.38;;;24.90;72.50;;;;;;5053228;28;20079;-83
2021/09/10 10:48:03;;;;;;;13.18;7.18;;;24.80;73.10;;;;;;5054777;28;20383;-83
2021/09/10 10:50:33;;;;;;;6.85;3.90;;;24.80;73.30;;;;;;5054119;28;20021;-82
2021/09/10 10:52:59;;;;;;;9.88;5.75;;;24.80;73.10;;;;;;5053806;28;20102;-82
2021/09/10 10:55:32;;;;;;;7.72;4.32;;;24.80;72.70;;;;;;5054208;28;20354;-82
2021/09/10 10:58:21;;;;;;;12.25;8.10;;;24.70;71.40;;;;;;5065679;28;20025;-82
2021/09/10 11:00:57;;;;;;;11.52;7.40;;;24.80;72.80;;;;;;5061948;28;20037;-81
2021/09/10 11:03:23;;;;;;;12.40;8.95;;;24.80;72.10;;;;;;5067917;28;20029;-82
2021/09/10 11:05:51;;;;;;;9.13;5.75;;;24.90;72.80;;;;;;5062975;28;20025;-84
2021/09/10 11:08:38;;;;;;;14.20;9.18;;;25.10;71.80;;;;;;5053766;28;20055;-83
2021/09/10 11:11:04;;;;;;;11.07;6.15;;;25.20;70.70;;;;;;5054814;28;20063;-83
2021/09/10 11:13:30;;;;;;;11.30;5.68;;;25.40;70.60;;;;;;5056005;28;20025;-83
2021/09/10 11:15:56;;;;;;;8.95;5.07;;;25.50;69.40;;;;;;5056748;28;20025;-82
2021/09/10 11:18:25;;;;;;;9.43;6.57;;;25.60;68.40;;;;;;5057527;28;20017;-82
2021/09/10 11:20:53;;;;;;;9.20;5.30;;;25.70;68.30;;;;;;5057329;28;20029;-81
2021/09/10 11:23:36;;;;;;;7.18;3.78;;;25.70;68.60;;;;;;5056715;28;20025;-81
2021/09/10 11:26:03;;;;;;;10.98;5.10;;;25.80;67.80;;;;;;5057311;28;20032;-80
2021/09/10 11:28:31;;;;;;;6.45;4.32;;;26.00;68.00;;;;;;5056327;28;20056;-80
2021/09/10 11:30:57;;;;;;;8.18;4.72;;;26.00;68.30;;;;;;5056140;28;20478;-81
2021/09/10 11:33:26;;;;;;;7.28;4.43;;;26.10;67.90;;;;;;5055448;28;20032;-80
2021/09/10 11:35:54;;;;;;;7.28;3.63;;;26.00;68.20;;;;;;5055991;28;20021;-80
2021/09/10 11:38:25;;;;;;;11.48;4.55;;;25.80;68.60;;;;;;5056157;28;20080;-80
2021/09/10 11:40:53;;;;;;;6.45;4.18;;;25.70;69.00;;;;;;5055757;28;20096;-80
2021/09/10 11:43:34;;;;;;;10.43;6.15;;;25.60;69.50;;;;;;5055994;28;20040;-81
2021/09/10 11:46:08;;;;;;;10.02;5.90;;;25.40;69.20;;;;;;5056334;28;20036;-85
2021/09/10 11:48:36;;;;;;;12.40;7.45;;;25.10;70.30;;;;;;5056289;28;20465;-85
2021/09/10 11:51:05;;;;;;;6.72;4.60;;;24.80;71.40;;;;;;5055670;28;20057;-86
2021/09/10 11:53:47;;;;;;;9.27;5.47;;;24.60;73.00;;;;;;5067216;28;20355;-87
2021/09/10 11:56:34;;;;;;;9.85;6.97;;;24.40;74.00;;;;;;5058410;28;20025;-88
2021/09/10 11:59:00;;;;;;;7.38;4.40;;;24.30;75.00;;;;;;5073757;28;20029;-87
2021/09/10 12:01:37;;;;;;;8.35;4.80;;;24.10;75.00;;;;;;5076437;28;20396;-80
2021/09/10 12:04:05;;;;;;;7.30;4.25;;;24.00;75.60;;;;;;5058811;28;20021;-79
2021/09/10 12:06:51;;;;;;;6.50;4.13;;;24.00;75.90;;;;;;5055369;28;20354;-81
2021/09/10 12:09:22;;;;;;;7.70;4.97;;;23.90;76.60;;;;;;5055462;28;20475;-84
2021/09/10 12:12:03;;;;;;;6.68;3.75;;;23.90;76.60;;;;;;5055644;28;20072;-85
2021/09/10 12:14:37;;;;;;;9.43;5.22;;;23.80;77.20;;;;;;5056055;28;20025;-85
2021/09/10 12:17:04;;;;;;;10.60;6.50;;;23.80;77.60;;;;;;5055990;28;20026;-85
2021/09/10 12:19:30;;;;;;;8.00;5.10;;;23.80;78.60;;;;;;5055889;28;20024;-86
2021/09/10 12:21:56;;;;;;;10.13;6.78;;;23.70;78.50;;;;;;5056650;28;20029;-85
2021/09/10 12:24:21;;;;;;;8.55;4.68;;;23.60;78.70;;;;;;5056203;28;20085;-85
2021/09/10 12:26:55;;;;;;;10.15;4.85;;;23.60;78.40;;;;;;5055170;28;20439;-86
2021/09/10 12:29:28;;;;;;;8.43;4.57;;;23.50;78.40;;;;;;5067623;28;20096;-86
2021/09/10 12:31:55;;;;;;;9.13;5.82;;;23.40;78.60;;;;;;5055978;28;20062;-85